sensor_id;sensor_type;location;lat;lon;timestamp;pressure;altitude;pressure_sealevel;temperature;humidity
66668;BME280;57205;51.438;-2.006;2024-02-15T00:00:16;100533.59;;;11.85;100.00
66668;BME280;57205;51.438;-2.006;2024-02-15T00:02:43;100545.91;;;11.86;100.00
66668;BME280;57205;51.438;-2.006;2024-02-15T00:05:10;100544.84;;;11.87;100.00
66668;BME280;57205;51.438;-2.006;2024-02-15T00:07:36;100540.81;;;11.85;100.00
66668;BME280;57205;51.438;-2.006;2024-02-15T00:10:02;100543.75;;;11.88;100.00
66668;BME280;57205;51.438;-2.006;2024-02-15T00:12:29;100539.47;;;11.87;100.00
66668;BME280;57205;51.438;-2.006;2024-02-15T00:14:55;100534.13;;;11.87;100.00
66668;BME280;57205;51.438;-2.006;2024-02-15T00:17:24;100536.81;;;11.87;100.00
66668;BME280;57205;51.438;-2.006;2024-02-15T00:19:49;100537.84;;;11.86;100.00
66668;BME280;57205;51.438;-2.006;2024-02-15T00:22:15;100552.06;;;11.87;100.00
66668;BME280;57205;51.438;-2.006;2024-02-15T00:24:40;100556.63;;;11.86;100.00
66668;BME280;57205;51.438;-2.006;2024-02-15T00:27:08;100565.75;;;11.85;100.00
66668;BME280;57205;51.438;-2.006;2024-02-15T00:29:33;100563.06;;;11.85;100.00
66668;BME280;57205;51.438;-2.006;2024-02-15T00:32:00;100561.72;;;11.88;100.00
66668;BME280;57205;51.438;-2.006;2024-02-15T00:34:26;100538.91;;;11.90;100.00
66668;BME280;57205;51.438;-2.006;2024-02-15T00:36:52;100531.44;;;11.87;100.00
66668;BME280;57205;51.438;-2.006;2024-02-15T00:39:17;100539.19;;;11.89;100.00
66668;BME280;57205;51.438;-2.006;2024-02-15T00:41:44;100529.81;;;11.86;100.00
66668;BME280;57205;51.438;-2.006;2024-02-15T00:44:10;100538.66;;;11.87;100.00
66668;BME280;57205;51.438;-2.006;2024-02-15T00:46:36;100542.94;;;11.88;100.00
66668;BME280;57205;51.438;-2.006;2024-02-15T00:49:03;100542.41;;;11.86;100.00
66668;BME280;57205;51.438;-2.006;2024-02-15T00:51:31;100539.72;;;11.86;100.00
66668;BME280;57205;51.438;-2.006;2024-02-15T00:53:57;100539.47;;;11.87;100.00
66668;BME280;57205;51.438;-2.006;2024-02-15T00:56:23;100550.19;;;11.87;100.00
66668;BME280;57205;51.438;-2.006;2024-02-15T00:58:49;100549.66;;;11.85;100.00
66668;BME280;57205;51.438;-2.006;2024-02-15T01:01:15;100541.63;;;11.85;100.00
66668;BME280;57205;51.438;-2.006;2024-02-15T01:03:40;100543.50;;;11.85;100.00
66668;BME280;57205;51.438;-2.006;2024-02-15T01:06:06;100541.34;;;11.87;100.00
66668;BME280;57205;51.438;-2.006;2024-02-15T01:08:32;100526.31;;;11.86;100.00
66668;BME280;57205;51.438;-2.006;2024-02-15T01:10:58;100521.25;;;11.84;100.00
66668;BME280;57205;51.438;-2.006;2024-02-15T01:13:24;100513.47;;;11.83;100.00
66668;BME280;57205;51.438;-2.006;2024-02-15T01:15:50;100511.88;;;11.82;100.00
66668;BME280;57205;51.438;-2.006;2024-02-15T01:18:15;100502.19;;;11.86;100.00
66668;BME280;57205;51.438;-2.006;2024-02-15T01:20:41;100502.47;;;11.84;100.00
66668;BME280;57205;51.438;-2.006;2024-02-15T01:23:06;100500.59;;;11.85;100.00
66668;BME280;57205;51.438;-2.006;2024-02-15T01:25:33;100490.16;;;11.83;100.00
66668;BME280;57205;51.438;-2.006;2024-02-15T01:27:58;100484.81;;;11.83;100.00
66668;BME280;57205;51.438;-2.006;2024-02-15T01:30:27;100484.00;;;11.83;100.00
66668;BME280;57205;51.438;-2.006;2024-02-15T01:32:54;100474.84;;;11.84;100.00
66668;BME280;57205;51.438;-2.006;2024-02-15T01:35:19;100471.94;;;11.80;100.00
66668;BME280;57205;51.438;-2.006;2024-02-15T01:37:45;100472.75;;;11.81;100.00
66668;BME280;57205;51.438;-2.006;2024-02-15T01:40:10;100474.34;;;11.82;100.00
66668;BME280;57205;51.438;-2.006;2024-02-15T01:42:38;100473.53;;;11.81;100.00
66668;BME280;57205;51.438;-2.006;2024-02-15T01:45:04;100475.13;;;11.82;100.00
66668;BME280;57205;51.438;-2.006;2024-02-15T01:47:30;100470.88;;;11.81;100.00
66668;BME280;57205;51.438;-2.006;2024-02-15T01:49:56;100474.59;;;11.80;100.00
66668;BME280;57205;51.438;-2.006;2024-02-15T01:52:22;100483.19;;;11.82;100.00
66668;BME280;57205;51.438;-2.006;2024-02-15T01:54:53;100476.75;;;11.78;100.00
66668;BME280;57205;51.438;-2.006;2024-02-15T01:57:20;100474.06;;;11.83;100.00
66668;BME280;57205;51.438;-2.006;2024-02-15T01:59:46;100458.53;;;11.85;100.00
66668;BME280;57205;51.438;-2.006;2024-02-15T02:02:14;100468.97;;;11.87;100.00
66668;BME280;57205;51.438;-2.006;2024-02-15T02:04:40;100460.63;;;11.88;100.00
66668;BME280;57205;51.438;-2.006;2024-02-15T02:07:07;100467.88;;;11.88;100.00
66668;BME280;57205;51.438;-2.006;2024-02-15T02:09:33;100458.47;;;11.90;100.00
66668;BME280;57205;51.438;-2.006;2024-02-15T02:11:58;100455.25;;;11.93;100.00
66668;BME280;57205;51.438;-2.006;2024-02-15T02:14:24;100453.94;;;11.91;100.00
66668;BME280;57205;51.438;-2.006;2024-02-15T02:16:50;100456.84;;;11.94;100.00
66668;BME280;57205;51.438;-2.006;2024-02-15T02:19:17;100453.09;;;11.95;100.00
66668;BME280;57205;51.438;-2.006;2024-02-15T02:21:43;100448.81;;;11.94;100.00
66668;BME280;57205;51.438;-2.006;2024-02-15T02:24:21;100441.84;;;11.93;100.00
66668;BME280;57205;51.438;-2.006;2024-02-15T02:26:47;100448.28;;;11.92;100.00
66668;BME280;57205;51.438;-2.006;2024-02-15T02:29:15;100441.31;;;11.91;100.00
66668;BME280;57205;51.438;-2.006;2024-02-15T02:31:40;100433.78;;;11.93;100.00
66668;BME280;57205;51.438;-2.006;2024-02-15T02:34:07;100442.63;;;11.94;100.00
66668;BME280;57205;51.438;-2.006;2024-02-15T02:36:34;100432.44;;;11.96;100.00
66668;BME280;57205;51.438;-2.006;2024-02-15T02:39:00;100431.91;;;11.94;100.00
66668;BME280;57205;51.438;-2.006;2024-02-15T02:41:28;100435.13;;;11.96;100.00
66668;BME280;57205;51.438;-2.006;2024-02-15T02:43:57;100422.25;;;11.98;100.00
66668;BME280;57205;51.438;-2.006;2024-02-15T02:46:22;100425.72;;;11.98;100.00
66668;BME280;57205;51.438;-2.006;2024-02-15T02:48:48;100421.41;;;12.02;100.00
66668;BME280;57205;51.438;-2.006;2024-02-15T02:51:17;100416.56;;;12.04;100.00
66668;BME280;57205;51.438;-2.006;2024-02-15T02:53:42;100417.06;;;12.06;100.00
66668;BME280;57205;51.438;-2.006;2024-02-15T02:56:09;100424.06;;;12.07;100.00
66668;BME280;57205;51.438;-2.006;2024-02-15T02:58:34;100424.59;;;12.09;100.00
66668;BME280;57205;51.438;-2.006;2024-02-15T03:00:59;100424.84;;;12.08;100.00
66668;BME280;57205;51.438;-2.006;2024-02-15T03:03:26;100421.38;;;12.07;100.00
66668;BME280;57205;51.438;-2.006;2024-02-15T03:05:51;100425.13;;;12.06;100.00
66668;BME280;57205;51.438;-2.006;2024-02-15T03:08:17;100427.28;;;12.09;100.00
66668;BME280;57205;51.438;-2.006;2024-02-15T03:10:43;100413.88;;;12.09;100.00
66668;BME280;57205;51.438;-2.006;2024-02-15T03:13:08;100425.88;;;12.12;100.00
66668;BME280;57205;51.438;-2.006;2024-02-15T03:15:34;100425.34;;;12.15;100.00
66668;BME280;57205;51.438;-2.006;2024-02-15T03:18:00;100415.41;;;12.15;100.00
66668;BME280;57205;51.438;-2.006;2024-02-15T03:20:32;100417.03;;;12.16;100.00
66668;BME280;57205;51.438;-2.006;2024-02-15T03:23:00;100402.81;;;12.16;100.00
66668;BME280;57205;51.438;-2.006;2024-02-15T03:25:27;100407.09;;;12.17;100.00
66668;BME280;57205;51.438;-2.006;2024-02-15T03:27:55;100405.47;;;12.16;100.00
66668;BME280;57205;51.438;-2.006;2024-02-15T03:30:22;100397.16;;;12.17;100.00
66668;BME280;57205;51.438;-2.006;2024-02-15T03:32:53;100386.41;;;12.17;100.00
66668;BME280;57205;51.438;-2.006;2024-02-15T03:35:20;100386.94;;;12.19;100.00
66668;BME280;57205;51.438;-2.006;2024-02-15T03:37:47;100374.09;;;12.16;100.00
66668;BME280;57205;51.438;-2.006;2024-02-15T03:40:16;100373.00;;;12.17;100.00
66668;BME280;57205;51.438;-2.006;2024-02-15T03:42:42;100358.00;;;12.16;100.00
66668;BME280;57205;51.438;-2.006;2024-02-15T03:45:07;100353.72;;;12.15;100.00
66668;BME280;57205;51.438;-2.006;2024-02-15T03:47:33;100353.97;;;12.19;100.00
66668;BME280;57205;51.438;-2.006;2024-02-15T03:50:04;100361.50;;;12.17;100.00
66668;BME280;57205;51.438;-2.006;2024-02-15T03:52:30;100363.09;;;12.18;100.00
66668;BME280;57205;51.438;-2.006;2024-02-15T03:54:56;100358.53;;;12.18;100.00
66668;BME280;57205;51.438;-2.006;2024-02-15T03:57:23;100370.56;;;12.21;100.00
66668;BME280;57205;51.438;-2.006;2024-02-15T03:59:48;100369.78;;;12.20;100.00
66668;BME280;57205;51.438;-2.006;2024-02-15T04:02:21;100368.69;;;12.21;100.00
66668;BME280;57205;51.438;-2.006;2024-02-15T04:04:51;100370.03;;;12.24;100.00
66668;BME280;57205;51.438;-2.006;2024-02-15T04:07:20;100365.72;;;12.28;100.00
66668;BME280;57205;51.438;-2.006;2024-02-15T04:09:46;100363.25;;;12.31;100.00
66668;BME280;57205;51.438;-2.006;2024-02-15T04:12:12;100364.56;;;12.34;100.00
66668;BME280;57205;51.438;-2.006;2024-02-15T04:14:38;100358.94;;;12.35;100.00
66668;BME280;57205;51.438;-2.006;2024-02-15T04:17:06;100379.59;;;12.35;100.00
66668;BME280;57205;51.438;-2.006;2024-02-15T04:19:32;100383.84;;;12.36;100.00
66668;BME280;57205;51.438;-2.006;2024-02-15T04:21:58;100386.28;;;12.37;100.00
66668;BME280;57205;51.438;-2.006;2024-02-15T04:24:25;100378.72;;;12.39;100.00
66668;BME280;57205;51.438;-2.006;2024-02-15T04:26:50;100381.69;;;12.43;100.00
66668;BME280;57205;51.438;-2.006;2024-02-15T04:29:17;100382.97;;;12.45;100.00
66668;BME280;57205;51.438;-2.006;2024-02-15T04:31:45;100382.97;;;12.45;100.00
66668;BME280;57205;51.438;-2.006;2024-02-15T04:34:17;100380.81;;;12.47;100.00
66668;BME280;57205;51.438;-2.006;2024-02-15T04:36:47;100384.03;;;12.49;100.00
66668;BME280;57205;51.438;-2.006;2024-02-15T04:39:19;100379.19;;;12.51;100.00
66668;BME280;57205;51.438;-2.006;2024-02-15T04:41:53;100377.53;;;12.55;100.00
66668;BME280;57205;51.438;-2.006;2024-02-15T04:44:19;100387.69;;;12.58;100.00
66668;BME280;57205;51.438;-2.006;2024-02-15T04:46:52;100388.25;;;12.55;100.00
66668;BME280;57205;51.438;-2.006;2024-02-15T04:49:17;100381.81;;;12.56;100.00
66668;BME280;57205;51.438;-2.006;2024-02-15T04:51:44;100386.09;;;12.57;100.00
66668;BME280;57205;51.438;-2.006;2024-02-15T04:54:10;100381.25;;;12.59;100.00
66668;BME280;57205;51.438;-2.006;2024-02-15T04:56:42;100386.63;;;12.59;100.00
66668;BME280;57205;51.438;-2.006;2024-02-15T04:59:09;100395.69;;;12.63;100.00
66668;BME280;57205;51.438;-2.006;2024-02-15T05:01:41;100391.41;;;12.62;100.00
66668;BME280;57205;51.438;-2.006;2024-02-15T05:04:13;100389.03;;;12.61;100.00
66668;BME280;57205;51.438;-2.006;2024-02-15T05:06:39;100399.47;;;12.62;100.00
66668;BME280;57205;51.438;-2.006;2024-02-15T05:09:05;100397.06;;;12.61;100.00
66668;BME280;57205;51.438;-2.006;2024-02-15T05:11:51;100395.75;;;12.58;100.00
66668;BME280;57205;51.438;-2.006;2024-02-15T05:14:18;100395.22;;;12.56;100.00
66668;BME280;57205;51.438;-2.006;2024-02-15T05:16:48;100397.06;;;12.61;100.00
66668;BME280;57205;51.438;-2.006;2024-02-15T05:19:17;100397.06;;;12.61;100.00
66668;BME280;57205;51.438;-2.006;2024-02-15T05:21:46;100399.47;;;12.62;100.00
66668;BME280;57205;51.438;-2.006;2024-02-15T05:24:16;100397.59;;;12.63;100.00
66668;BME280;57205;51.438;-2.006;2024-02-15T05:26:44;100386.56;;;12.64;100.00
66668;BME280;57205;51.438;-2.006;2024-02-15T05:29:12;100387.09;;;12.66;100.00
66668;BME280;57205;51.438;-2.006;2024-02-15T05:31:38;100385.44;;;12.70;100.00
66668;BME280;57205;51.438;-2.006;2024-02-15T05:34:06;100381.66;;;12.71;100.00
66668;BME280;57205;51.438;-2.006;2024-02-15T05:36:37;100380.59;;;12.72;100.00
66668;BME280;57205;51.438;-2.006;2024-02-15T05:39:03;100375.22;;;12.72;100.00
66668;BME280;57205;51.438;-2.006;2024-02-15T05:41:30;100378.69;;;12.73;100.00
66668;BME280;57205;51.438;-2.006;2024-02-15T05:43:57;100379.50;;;12.73;100.00
66668;BME280;57205;51.438;-2.006;2024-02-15T05:46:23;100376.53;;;12.75;100.00
66668;BME280;57205;51.438;-2.006;2024-02-15T05:48:49;100370.34;;;12.74;100.00
66668;BME280;57205;51.438;-2.006;2024-02-15T05:51:16;100363.38;;;12.73;100.00
66668;BME280;57205;51.438;-2.006;2024-02-15T05:53:43;100369.28;;;12.75;100.00
66668;BME280;57205;51.438;-2.006;2024-02-15T05:56:09;100360.41;;;12.75;100.00
66668;BME280;57205;51.438;-2.006;2024-02-15T05:58:38;100364.97;;;12.74;100.00
66668;BME280;57205;51.438;-2.006;2024-02-15T06:01:07;100367.16;;;12.72;100.00
66668;BME280;57205;51.438;-2.006;2024-02-15T06:03:37;100364.19;;;12.74;100.00
66668;BME280;57205;51.438;-2.006;2024-02-15T06:06:04;100357.44;;;12.76;100.00
66668;BME280;57205;51.438;-2.006;2024-02-15T06:08:33;100359.88;;;12.78;100.00
66668;BME280;57205;51.438;-2.006;2024-02-15T06:10:59;100357.19;;;12.78;100.00
66668;BME280;57205;51.438;-2.006;2024-02-15T06:13:25;100358.25;;;12.77;100.00
66668;BME280;57205;51.438;-2.006;2024-02-15T06:15:51;100364.72;;;12.76;100.00
66668;BME280;57205;51.438;-2.006;2024-02-15T06:20:55;100354.22;;;12.74;100.00
66668;BME280;57205;51.438;-2.006;2024-02-15T06:23:22;100359.59;;;12.74;100.00
66668;BME280;57205;51.438;-2.006;2024-02-15T06:25:51;100353.47;;;12.74;100.00
66668;BME280;57205;51.438;-2.006;2024-02-15T06:28:18;100357.50;;;12.71;100.00
66668;BME280;57205;51.438;-2.006;2024-02-15T06:31:02;100359.13;;;12.72;100.00
66668;BME280;57205;51.438;-2.006;2024-02-15T06:33:45;100350.25;;;12.72;100.00
66668;BME280;57205;51.438;-2.006;2024-02-15T06:36:48;100357.72;;;12.75;100.00
66668;BME280;57205;51.438;-2.006;2024-02-15T06:39:33;100359.34;;;12.76;100.00
66668;BME280;57205;51.438;-2.006;2024-02-15T06:42:08;100363.38;;;12.73;100.00
66668;BME280;57205;51.438;-2.006;2024-02-15T06:44:33;100360.19;;;12.71;100.00
66668;BME280;57205;51.438;-2.006;2024-02-15T06:47:00;100351.31;;;12.71;100.00
66668;BME280;57205;51.438;-2.006;2024-02-15T06:49:25;100354.00;;;12.71;100.00
66668;BME280;57205;51.438;-2.006;2024-02-15T06:51:51;100359.59;;;12.74;100.00
66668;BME280;57205;51.438;-2.006;2024-02-15T06:54:17;100351.28;;;12.76;100.00
66668;BME280;57205;51.438;-2.006;2024-02-15T06:56:44;100339.22;;;12.73;100.00
66668;BME280;57205;51.438;-2.006;2024-02-15T06:59:12;100340.31;;;12.72;100.00
66668;BME280;57205;51.438;-2.006;2024-02-15T07:01:41;100336.59;;;12.68;100.00
66668;BME280;57205;51.438;-2.006;2024-02-15T07:04:07;100326.16;;;12.67;100.00
66668;BME280;57205;51.438;-2.006;2024-02-15T07:06:33;100321.63;;;12.62;100.00
66668;BME280;57205;51.438;-2.006;2024-02-15T07:09:00;100325.66;;;12.60;100.00
66668;BME280;57205;51.438;-2.006;2024-02-15T07:11:25;100315.22;;;12.58;100.00
66668;BME280;57205;51.438;-2.006;2024-02-15T07:13:51;100309.34;;;12.56;100.00
66668;BME280;57205;51.438;-2.006;2024-02-15T07:16:22;100309.91;;;12.53;100.00
66668;BME280;57205;51.438;-2.006;2024-02-15T07:18:47;100310.47;;;12.50;100.00
66668;BME280;57205;51.438;-2.006;2024-02-15T07:21:12;100308.41;;;12.42;100.00
66668;BME280;57205;51.438;-2.006;2024-02-15T07:23:42;100303.88;;;12.38;100.00
66668;BME280;57205;51.438;-2.006;2024-02-15T07:26:07;100303.44;;;12.31;100.00
66668;BME280;57205;51.438;-2.006;2024-02-15T07:28:33;100301.88;;;12.25;100.00
66668;BME280;57205;51.438;-2.006;2024-02-15T07:30:59;100308.38;;;12.19;100.00
66668;BME280;57205;51.438;-2.006;2024-02-15T07:33:27;100299.00;;;12.16;100.00
66668;BME280;57205;51.438;-2.006;2024-02-15T07:35:55;100294.75;;;12.10;100.00
66668;BME280;57205;51.438;-2.006;2024-02-15T07:38:23;100300.13;;;12.10;100.00
66668;BME280;57205;51.438;-2.006;2024-02-15T07:40:49;100305.53;;;12.05;100.00
66668;BME280;57205;51.438;-2.006;2024-02-15T07:43:15;100310.16;;;12.00;100.00
66668;BME280;57205;51.438;-2.006;2024-02-15T07:45:41;100321.16;;;11.98;100.00
66668;BME280;57205;51.438;-2.006;2024-02-15T07:48:07;100323.06;;;11.93;100.00
66668;BME280;57205;51.438;-2.006;2024-02-15T07:50:33;100328.16;;;11.89;100.00
66668;BME280;57205;51.438;-2.006;2024-02-15T07:52:58;100326.06;;;11.86;100.00
66668;BME280;57205;51.438;-2.006;2024-02-15T07:55:24;100321.78;;;11.85;100.00
66668;BME280;57205;51.438;-2.006;2024-02-15T07:57:50;100315.09;;;11.83;100.00
66668;BME280;57205;51.438;-2.006;2024-02-15T08:00:18;100322.03;;;11.84;100.00
66668;BME280;57205;51.438;-2.006;2024-02-15T08:02:44;100328.78;;;11.81;100.00
66668;BME280;57205;51.438;-2.006;2024-02-15T08:05:10;100318.06;;;11.81;100.00
66668;BME280;57205;51.438;-2.006;2024-02-15T08:07:43;100318.09;;;11.76;100.00
66668;BME280;57205;51.438;-2.006;2024-02-15T08:10:10;100308.72;;;11.73;100.00
66668;BME280;57205;51.438;-2.006;2024-02-15T08:12:41;100311.69;;;11.72;100.00
66668;BME280;57205;51.438;-2.006;2024-02-15T08:15:08;100314.38;;;11.72;100.00
66668;BME280;57205;51.438;-2.006;2024-02-15T08:17:41;100311.94;;;11.70;100.00
66668;BME280;57205;51.438;-2.006;2024-02-15T08:20:10;100313.56;;;11.71;100.00
66668;BME280;57205;51.438;-2.006;2024-02-15T08:22:36;100318.69;;;11.68;100.00
66668;BME280;57205;51.438;-2.006;2024-02-15T08:25:11;100316.00;;;11.68;100.00
66668;BME280;57205;51.438;-2.006;2024-02-15T08:27:44;100322.97;;;11.64;100.00
66668;BME280;57205;51.438;-2.006;2024-02-15T08:30:13;100306.66;;;11.60;100.00
66668;BME280;57205;51.438;-2.006;2024-02-15T08:32:39;100306.66;;;11.60;100.00
66668;BME280;57205;51.438;-2.006;2024-02-15T08:35:08;100295.94;;;11.60;100.00
66668;BME280;57205;51.438;-2.006;2024-02-15T08:37:36;100301.56;;;11.59;100.00
66668;BME280;57205;51.438;-2.006;2024-02-15T08:40:04;100289.22;;;11.63;100.00
66668;BME280;57205;51.438;-2.006;2024-02-15T08:42:36;100295.94;;;11.60;100.00
66668;BME280;57205;51.438;-2.006;2024-02-15T08:45:03;100284.94;;;11.62;100.00
66668;BME280;57205;51.438;-2.006;2024-02-15T08:47:29;100285.44;;;11.64;100.00
66668;BME280;57205;51.438;-2.006;2024-02-15T08:49:54;100283.88;;;11.63;100.00
66668;BME280;57205;51.438;-2.006;2024-02-15T08:52:20;100284.38;;;11.65;100.00
66668;BME280;57205;51.438;-2.006;2024-02-15T08:54:45;100273.91;;;11.63;100.00
66668;BME280;57205;51.438;-2.006;2024-02-15T08:57:11;100271.53;;;11.62;100.00
66668;BME280;57205;51.438;-2.006;2024-02-15T08:59:36;100267.78;;;11.63;100.00
66668;BME280;57205;51.438;-2.006;2024-02-15T09:02:03;100265.63;;;11.65;100.00
66668;BME280;57205;51.438;-2.006;2024-02-15T09:04:30;100265.31;;;11.71;100.00
66668;BME280;57205;51.438;-2.006;2024-02-15T09:06:56;100260.50;;;11.73;100.00
66668;BME280;57205;51.438;-2.006;2024-02-15T09:09:23;100251.59;;;11.78;100.00
66668;BME280;57205;51.438;-2.006;2024-02-15T09:11:48;100251.34;;;11.80;100.00
66668;BME280;57205;51.438;-2.006;2024-02-15T09:14:14;100249.94;;;11.82;100.00
66668;BME280;57205;51.438;-2.006;2024-02-15T09:16:39;100254.78;;;11.80;100.00
66668;BME280;57205;51.438;-2.006;2024-02-15T09:19:05;100242.47;;;11.79;100.00
66668;BME280;57205;51.438;-2.006;2024-02-15T09:21:32;100235.50;;;11.78;100.00
66668;BME280;57205;51.438;-2.006;2024-02-15T09:23:59;100227.47;;;11.78;100.00
66668;BME280;57205;51.438;-2.006;2024-02-15T09:26:25;100231.47;;;11.81;100.00
66668;BME280;57205;51.438;-2.006;2024-02-15T09:28:50;100223.16;;;11.82;100.00
66668;BME280;57205;51.438;-2.006;2024-02-15T09:31:16;100216.72;;;11.83;100.00
66668;BME280;57205;51.438;-2.006;2024-02-15T09:33:41;100212.34;;;11.92;100.00
66668;BME280;57205;51.438;-2.006;2024-02-15T09:36:07;100213.63;;;12.00;100.00
66668;BME280;57205;51.438;-2.006;2024-02-15T09:38:38;100212.66;;;12.14;100.00
66668;BME280;57205;51.438;-2.006;2024-02-15T09:41:03;100206.69;;;12.22;100.00
66668;BME280;57205;51.438;-2.006;2024-02-15T09:43:32;100201.78;;;12.29;100.00
66668;BME280;57205;51.438;-2.006;2024-02-15T09:45:58;100188.50;;;12.38;100.00
66668;BME280;57205;51.438;-2.006;2024-02-15T09:48:26;100192.16;;;12.47;100.00
66668;BME280;57205;51.438;-2.006;2024-02-15T09:50:53;100189.88;;;12.59;100.00
66668;BME280;57205;51.438;-2.006;2024-02-15T09:53:22;100189.31;;;12.81;100.00
66668;BME280;57205;51.438;-2.006;2024-02-15T09:56:11;100191.19;;;13.04;100.00
66668;BME280;57205;51.438;-2.006;2024-02-15T09:58:39;100184.28;;;13.16;100.00
66668;BME280;57205;51.438;-2.006;2024-02-15T10:01:05;100174.06;;;13.18;100.00
66668;BME280;57205;51.438;-2.006;2024-02-15T10:03:37;100167.34;;;13.16;100.00
66668;BME280;57205;51.438;-2.006;2024-02-15T10:06:11;100160.97;;;13.12;100.00
66668;BME280;57205;51.438;-2.006;2024-02-15T10:08:37;100163.66;;;13.12;100.00
66668;BME280;57205;51.438;-2.006;2024-02-15T10:11:30;100160.75;;;13.08;100.00
66668;BME280;57205;51.438;-2.006;2024-02-15T10:14:10;100163.78;;;13.02;100.00
66668;BME280;57205;51.438;-2.006;2024-02-15T10:16:36;100164.09;;;13.00;100.00
66668;BME280;57205;51.438;-2.006;2024-02-15T10:19:09;100160.94;;;12.93;100.00
66668;BME280;57205;51.438;-2.006;2024-02-15T10:24:43;100163.41;;;12.90;100.00
66668;BME280;57205;51.438;-2.006;2024-02-15T10:27:09;100162.91;;;12.88;100.00
66668;BME280;57205;51.438;-2.006;2024-02-15T10:29:37;100148.69;;;12.87;100.00
66668;BME280;57205;51.438;-2.006;2024-02-15T10:32:06;100151.59;;;12.91;100.00
66668;BME280;57205;51.438;-2.006;2024-02-15T10:34:43;100147.50;;;12.93;100.00
66668;BME280;57205;51.438;-2.006;2024-02-15T10:37:12;100149.94;;;12.95;100.00
66668;BME280;57205;51.438;-2.006;2024-02-15T10:39:38;100142.59;;;13.00;100.00
66668;BME280;57205;51.438;-2.006;2024-02-15T10:42:06;100131.28;;;13.03;100.00
66668;BME280;57205;51.438;-2.006;2024-02-15T10:44:32;100127.81;;;13.03;100.00
66668;BME280;57205;51.438;-2.006;2024-02-15T10:47:00;100118.59;;;13.09;100.00
66668;BME280;57205;51.438;-2.006;2024-02-15T10:49:31;100113.22;;;13.09;100.00
66668;BME280;57205;51.438;-2.006;2024-02-15T10:51:58;100113.72;;;13.11;100.00
66668;BME280;57205;51.438;-2.006;2024-02-15T10:57:05;100113.47;;;13.26;100.00
66668;BME280;57205;51.438;-2.006;2024-02-15T10:59:37;100115.38;;;13.25;100.00
66668;BME280;57205;51.438;-2.006;2024-02-15T11:04:42;100113.53;;;13.53;100.00
66668;BME280;57205;51.438;-2.006;2024-02-15T11:07:10;100114.38;;;13.67;100.00
66668;BME280;57205;51.438;-2.006;2024-02-15T11:09:37;100108.81;;;13.77;100.00
66668;BME280;57205;51.438;-2.006;2024-02-15T11:12:05;100101.06;;;13.89;100.00
66668;BME280;57205;51.438;-2.006;2024-02-15T11:14:32;100097.88;;;14.01;100.00
66668;BME280;57205;51.438;-2.006;2024-02-15T11:17:01;100089.28;;;14.12;100.00
66668;BME280;57205;51.438;-2.006;2024-02-15T11:22:09;100080.94;;;14.14;100.00
66668;BME280;57205;51.438;-2.006;2024-02-15T11:24:36;100075.34;;;14.10;100.00
66668;BME280;57205;51.438;-2.006;2024-02-15T11:27:05;100070.88;;;14.19;100.00
66668;BME280;57205;51.438;-2.006;2024-02-15T11:32:49;100061.13;;;14.59;100.00
66668;BME280;57205;51.438;-2.006;2024-02-15T11:35:22;100067.03;;;14.83;100.00
66668;BME280;57205;51.438;-2.006;2024-02-15T11:40:22;100053.50;;;15.19;100.00
66668;BME280;57205;51.438;-2.006;2024-02-15T11:42:56;100055.78;;;15.25;100.00
66668;BME280;57205;51.438;-2.006;2024-02-15T11:45:25;100052.88;;;15.22;100.00
66668;BME280;57205;51.438;-2.006;2024-02-15T11:47:53;100049.69;;;15.20;100.00
66668;BME280;57205;51.438;-2.006;2024-02-15T11:50:20;100041.91;;;15.18;100.00
66668;BME280;57205;51.438;-2.006;2024-02-15T11:52:51;100041.31;;;15.21;100.00
66668;BME280;57205;51.438;-2.006;2024-02-15T11:55:21;100037.00;;;15.20;100.00
66668;BME280;57205;51.438;-2.006;2024-02-15T11:57:56;100032.59;;;15.24;100.00
66668;BME280;57205;51.438;-2.006;2024-02-15T12:00:35;100040.25;;;15.31;100.00
66668;BME280;57205;51.438;-2.006;2024-02-15T12:03:19;100030.41;;;15.26;100.00
66668;BME280;57205;51.438;-2.006;2024-02-15T12:06:04;100031.03;;;15.23;100.00
66668;BME280;57205;51.438;-2.006;2024-02-15T12:08:49;100021.81;;;15.24;100.00
66668;BME280;57205;51.438;-2.006;2024-02-15T12:11:34;100018.69;;;15.31;100.00
66668;BME280;57205;51.438;-2.006;2024-02-15T12:14:18;100004.59;;;15.34;100.00
66668;BME280;57205;51.438;-2.006;2024-02-15T12:19:48;99994.66;;;15.43;100.00
66668;BME280;57205;51.438;-2.006;2024-02-15T12:22:23;99985.09;;;15.37;100.00
66668;BME280;57205;51.438;-2.006;2024-02-15T12:24:57;99990.47;;;15.37;100.00
66668;BME280;57205;51.438;-2.006;2024-02-15T12:27:24;99990.94;;;15.30;100.00
66668;BME280;57205;51.438;-2.006;2024-02-15T12:29:59;99994.28;;;15.36;100.00
66668;BME280;57205;51.438;-2.006;2024-02-15T12:32:28;99996.72;;;15.46;100.00
66668;BME280;57205;51.438;-2.006;2024-02-15T12:35:08;99986.16;;;15.58;100.00
66668;BME280;57205;51.438;-2.006;2024-02-15T12:37:35;99993.97;;;15.68;100.00
66668;BME280;57205;51.438;-2.006;2024-02-15T12:40:11;99980.50;;;15.68;100.00
66668;BME280;57205;51.438;-2.006;2024-02-15T12:42:41;99985.41;;;15.75;100.00
66668;BME280;57205;51.438;-2.006;2024-02-15T12:45:15;99982.25;;;15.73;100.00
66668;BME280;57205;51.438;-2.006;2024-02-15T12:47:43;99977.81;;;15.77;100.00
66668;BME280;57205;51.438;-2.006;2024-02-15T12:50:18;99969.88;;;15.80;100.00
66668;BME280;57205;51.438;-2.006;2024-02-15T12:52:46;99957.53;;;15.96;100.00
66668;BME280;57205;51.438;-2.006;2024-02-15T12:55:23;99952.31;;;16.08;100.00
66668;BME280;57205;51.438;-2.006;2024-02-15T12:57:53;99946.59;;;16.18;100.00